sensor_id;sensor_type;location;lat;lon;timestamp;pressure;altitude;pressure_sealevel;temperature;humidity
34073;BME280;20346;52.702;16.886;2023-01-31T00:01:46;100022.98;;;3.07;87.95
34073;BME280;20346;52.702;16.886;2023-01-31T00:04:33;100024.51;;;3.07;87.89
34073;BME280;20346;52.702;16.886;2023-01-31T00:07:20;100029.27;;;3.07;87.84
34073;BME280;20346;52.702;16.886;2023-01-31T00:10:06;100028.94;;;3.07;87.89
34073;BME280;20346;52.702;16.886;2023-01-31T00:12:52;100032.16;;;3.06;87.90
34073;BME280;20346;52.702;16.886;2023-01-31T00:15:39;100032.34;;;3.06;87.85
34073;BME280;20346;52.702;16.886;2023-01-31T00:18:25;100035.73;;;3.06;87.82
34073;BME280;20346;52.702;16.886;2023-01-31T00:21:13;100033.34;;;3.05;87.86
34073;BME280;20346;52.702;16.886;2023-01-31T00:23:59;100037.61;;;3.04;87.91
34073;BME280;20346;52.702;16.886;2023-01-31T00:26:46;100047.65;;;3.04;87.85
34073;BME280;20346;52.702;16.886;2023-01-31T00:29:33;100053.77;;;3.03;87.82
34073;BME280;20346;52.702;16.886;2023-01-31T00:32:19;100060.41;;;3.03;87.74
34073;BME280;20346;52.702;16.886;2023-01-31T00:35:06;100064.50;;;3.03;87.80
34073;BME280;20346;52.702;16.886;2023-01-31T00:37:52;100068.08;;;3.03;87.76
34073;BME280;20346;52.702;16.886;2023-01-31T00:40:38;100072.34;;;3.04;87.76
34073;BME280;20346;52.702;16.886;2023-01-31T00:43:24;100079.31;;;3.03;87.68
34073;BME280;20346;52.702;16.886;2023-01-31T00:46:10;100081.00;;;3.02;87.64
34073;BME280;20346;52.702;16.886;2023-01-31T00:48:56;100087.81;;;3.01;87.62
34073;BME280;20346;52.702;16.886;2023-01-31T00:51:42;100089.69;;;3.01;87.60
34073;BME280;20346;52.702;16.886;2023-01-31T00:54:29;100088.66;;;2.99;87.54
34073;BME280;20346;52.702;16.886;2023-01-31T00:57:15;100094.78;;;2.99;87.60
34073;BME280;20346;52.702;16.886;2023-01-31T01:00:02;100102.79;;;2.98;87.49
34073;BME280;20346;52.702;16.886;2023-01-31T01:02:48;100109.08;;;2.98;87.54
34073;BME280;20346;52.702;16.886;2023-01-31T01:05:34;100106.17;;;2.97;87.47
34073;BME280;20346;52.702;16.886;2023-01-31T01:08:20;100112.81;;;2.96;87.37
34073;BME280;20346;52.702;16.886;2023-01-31T01:11:09;100113.48;;;2.95;87.42
34073;BME280;20346;52.702;16.886;2023-01-31T01:13:56;100114.83;;;2.94;87.36
34073;BME280;20346;52.702;16.886;2023-01-31T01:16:42;100112.97;;;2.94;87.44
34073;BME280;20346;52.702;16.886;2023-01-31T01:19:28;100116.88;;;2.94;87.36
34073;BME280;20346;52.702;16.886;2023-01-31T01:22:14;100118.59;;;2.93;87.42
34073;BME280;20346;52.702;16.886;2023-01-31T01:25:01;100123.84;;;2.92;87.43
34073;BME280;20346;52.702;16.886;2023-01-31T01:27:47;100126.91;;;2.92;87.34
34073;BME280;20346;52.702;16.886;2023-01-31T01:30:33;100130.98;;;2.91;87.37
34073;BME280;20346;52.702;16.886;2023-01-31T01:33:19;100141.54;;;2.91;87.37
34073;BME280;20346;52.702;16.886;2023-01-31T01:36:06;100142.90;;;2.90;87.38
34073;BME280;20346;52.702;16.886;2023-01-31T01:38:53;100148.86;;;2.90;87.25
34073;BME280;20346;52.702;16.886;2023-01-31T01:41:39;100154.13;;;2.90;87.28
34073;BME280;20346;52.702;16.886;2023-01-31T01:50:24;100159.05;;;2.88;87.27
34073;BME280;20346;52.702;16.886;2023-01-31T01:53:15;100162.80;;;2.88;87.19
34073;BME280;20346;52.702;16.886;2023-01-31T01:56:06;100166.88;;;2.87;87.19
34073;BME280;20346;52.702;16.886;2023-01-31T01:59:15;100169.59;;;2.86;87.14
34073;BME280;20346;52.702;16.886;2023-01-31T02:02:00;100177.24;;;2.86;87.22
34073;BME280;20346;52.702;16.886;2023-01-31T02:04:46;100182.18;;;2.86;87.16
34073;BME280;20346;52.702;16.886;2023-01-31T02:07:34;100182.69;;;2.85;87.14
34073;BME280;20346;52.702;16.886;2023-01-31T02:10:22;100186.27;;;2.85;87.10
34073;BME280;20346;52.702;16.886;2023-01-31T02:13:09;100192.04;;;2.84;87.12
34073;BME280;20346;52.702;16.886;2023-01-31T02:15:56;100192.55;;;2.84;87.12
34073;BME280;20346;52.702;16.886;2023-01-31T02:18:43;100196.13;;;2.83;87.09
34073;BME280;20346;52.702;16.886;2023-01-31T02:27:27;100213.30;;;2.82;87.10
34073;BME280;20346;52.702;16.886;2023-01-31T02:33:35;100233.89;;;2.81;87.01
34073;BME280;20346;52.702;16.886;2023-01-31T02:36:32;100235.25;;;2.81;87.00
34073;BME280;20346;52.702;16.886;2023-01-31T02:42:36;100246.98;;;2.80;86.93
34073;BME280;20346;52.702;16.886;2023-01-31T02:45:37;100258.38;;;2.79;86.92
34073;BME280;20346;52.702;16.886;2023-01-31T02:51:21;100265.52;;;2.79;86.83
34073;BME280;20346;52.702;16.886;2023-01-31T02:54:14;100271.30;;;2.79;86.89
34073;BME280;20346;52.702;16.886;2023-01-31T02:57:02;100273.52;;;2.79;86.82
34073;BME280;20346;52.702;16.886;2023-01-31T02:59:48;100277.94;;;2.78;86.80
34073;BME280;20346;52.702;16.886;2023-01-31T03:02:34;100287.80;;;2.78;86.76
34073;BME280;20346;52.702;16.886;2023-01-31T03:05:24;100286.78;;;2.77;86.82
34073;BME280;20346;52.702;16.886;2023-01-31T03:08:10;100284.39;;;2.77;86.71
34073;BME280;20346;52.702;16.886;2023-01-31T03:11:02;100280.65;;;2.76;86.57
34073;BME280;20346;52.702;16.886;2023-01-31T03:13:52;100291.53;;;2.75;86.64
34073;BME280;20346;52.702;16.886;2023-01-31T03:20:34;100303.27;;;2.76;86.66
34073;BME280;20346;52.702;16.886;2023-01-31T03:23:23;100306.51;;;2.75;86.59
34073;BME280;20346;52.702;16.886;2023-01-31T03:26:14;100316.71;;;2.75;86.64
34073;BME280;20346;52.702;16.886;2023-01-31T03:29:01;100322.16;;;2.75;86.56
34073;BME280;20346;52.702;16.886;2023-01-31T03:31:57;100325.56;;;2.74;86.56
34073;BME280;20346;52.702;16.886;2023-01-31T03:34:46;100345.46;;;2.74;86.52
34073;BME280;20346;52.702;16.886;2023-01-31T03:37:40;100349.89;;;2.74;86.59
34073;BME280;20346;52.702;16.886;2023-01-31T03:40:39;100356.02;;;2.74;86.56
34073;BME280;20346;52.702;16.886;2023-01-31T03:43:36;100359.25;;;2.74;86.46
34073;BME280;20346;52.702;16.886;2023-01-31T03:46:26;100365.72;;;2.74;86.43
34073;BME280;20346;52.702;16.886;2023-01-31T03:49:14;100372.87;;;2.74;86.45
34073;BME280;20346;52.702;16.886;2023-01-31T03:52:04;100374.39;;;2.74;86.45
34073;BME280;20346;52.702;16.886;2023-01-31T03:55:02;100374.57;;;2.74;86.40
34073;BME280;20346;52.702;16.886;2023-01-31T03:57:51;100375.27;;;2.74;86.42
34073;BME280;20346;52.702;16.886;2023-01-31T04:00:39;100376.61;;;2.74;86.35
34073;BME280;20346;52.702;16.886;2023-01-31T04:03:29;100383.73;;;2.73;86.33
34073;BME280;20346;52.702;16.886;2023-01-31T04:06:17;100383.06;;;2.72;86.32
34073;BME280;20346;52.702;16.886;2023-01-31T04:09:03;100378.46;;;2.73;86.31
34073;BME280;20346;52.702;16.886;2023-01-31T04:11:50;100383.73;;;2.72;86.24
34073;BME280;20346;52.702;16.886;2023-01-31T04:14:36;100386.30;;;2.73;86.24
34073;BME280;20346;52.702;16.886;2023-01-31T04:17:22;100390.21;;;2.73;86.22
34073;BME280;20346;52.702;16.886;2023-01-31T04:20:10;100391.91;;;2.72;86.16
34073;BME280;20346;52.702;16.886;2023-01-31T04:22:57;100393.27;;;2.72;86.08
34073;BME280;20346;52.702;16.886;2023-01-31T04:25:44;100396.66;;;2.71;86.08
34073;BME280;20346;52.702;16.886;2023-01-31T04:28:30;100401.42;;;2.71;86.14
34073;BME280;20346;52.702;16.886;2023-01-31T04:31:17;100404.98;;;2.70;86.08
34073;BME280;20346;52.702;16.886;2023-01-31T04:34:03;100407.36;;;2.70;86.11
34073;BME280;20346;52.702;16.886;2023-01-31T04:36:49;100415.02;;;2.69;86.02
34073;BME280;20346;52.702;16.886;2023-01-31T04:39:35;100413.31;;;2.69;86.04
34073;BME280;20346;52.702;16.886;2023-01-31T04:42:21;100416.39;;;2.69;86.04
34073;BME280;20346;52.702;16.886;2023-01-31T04:45:07;100420.29;;;2.69;85.95
34073;BME280;20346;52.702;16.886;2023-01-31T04:47:53;100418.58;;;2.68;85.98
34073;BME280;20346;52.702;16.886;2023-01-31T04:50:40;100427.25;;;2.67;85.98
34073;BME280;20346;52.702;16.886;2023-01-31T04:53:26;100432.16;;;2.66;85.92
34073;BME280;20346;52.702;16.886;2023-01-31T04:56:12;100437.26;;;2.65;85.94
34073;BME280;20346;52.702;16.886;2023-01-31T04:58:58;100445.77;;;2.65;85.98
34073;BME280;20346;52.702;16.886;2023-01-31T05:01:45;100452.90;;;2.64;85.89
34073;BME280;20346;52.702;16.886;2023-01-31T05:04:31;100459.20;;;2.64;85.88
34073;BME280;20346;52.702;16.886;2023-01-31T05:07:17;100470.77;;;2.64;85.82
34073;BME280;20346;52.702;16.886;2023-01-31T05:10:03;100470.59;;;2.63;85.82
34073;BME280;20346;52.702;16.886;2023-01-31T05:12:49;100465.98;;;2.63;85.83
34073;BME280;20346;52.702;16.886;2023-01-31T05:15:36;100470.23;;;2.62;85.87
34073;BME280;20346;52.702;16.886;2023-01-31T05:18:23;100468.69;;;2.61;85.87
34073;BME280;20346;52.702;16.886;2023-01-31T05:21:09;100467.31;;;2.61;85.67
34073;BME280;20346;52.702;16.886;2023-01-31T05:23:56;100468.86;;;2.60;85.66
34073;BME280;20346;52.702;16.886;2023-01-31T05:26:42;100468.34;;;2.58;85.55
34073;BME280;20346;52.702;16.886;2023-01-31T05:29:28;100480.41;;;2.58;85.62
34073;BME280;20346;52.702;16.886;2023-01-31T05:32:15;100484.31;;;2.57;85.59
34073;BME280;20346;52.702;16.886;2023-01-31T05:35:05;100487.38;;;2.57;85.63
34073;BME280;20346;52.702;16.886;2023-01-31T05:37:54;100489.74;;;2.56;85.59
34073;BME280;20346;52.702;16.886;2023-01-31T05:40:40;100492.27;;;2.54;85.62
34073;BME280;20346;52.702;16.886;2023-01-31T05:43:26;100495.51;;;2.54;85.55
34073;BME280;20346;52.702;16.886;2023-01-31T05:46:12;100496.84;;;2.53;85.56
34073;BME280;20346;52.702;16.886;2023-01-31T05:48:58;100501.61;;;2.53;85.45
34073;BME280;20346;52.702;16.886;2023-01-31T05:51:45;100503.46;;;2.52;85.50
34073;BME280;20346;52.702;16.886;2023-01-31T05:54:31;100502.27;;;2.51;85.44
34073;BME280;20346;52.702;16.886;2023-01-31T05:57:17;100511.11;;;2.51;85.53
34073;BME280;20346;52.702;16.886;2023-01-31T06:00:03;100512.81;;;2.51;85.50
34073;BME280;20346;52.702;16.886;2023-01-31T06:02:50;100517.05;;;2.50;85.45
34073;BME280;20346;52.702;16.886;2023-01-31T06:05:36;100522.48;;;2.50;85.39
34073;BME280;20346;52.702;16.886;2023-01-31T06:08:22;100527.92;;;2.49;85.45
34073;BME280;20346;52.702;16.886;2023-01-31T06:11:08;100528.60;;;2.49;85.44
34073;BME280;20346;52.702;16.886;2023-01-31T06:13:55;100535.73;;;2.48;85.39
34073;BME280;20346;52.702;16.886;2023-01-31T06:16:43;100536.23;;;2.48;85.25
34073;BME280;20346;52.702;16.886;2023-01-31T06:19:29;100542.88;;;2.48;85.35
34073;BME280;20346;52.702;16.886;2023-01-31T06:22:15;100544.73;;;2.47;85.28
34073;BME280;20346;52.702;16.886;2023-01-31T06:25:02;100541.17;;;2.48;85.31
34073;BME280;20346;52.702;16.886;2023-01-31T06:27:49;100538.11;;;2.48;85.29
34073;BME280;20346;52.702;16.886;2023-01-31T06:30:35;100547.30;;;2.48;85.26
34073;BME280;20346;52.702;16.886;2023-01-31T06:33:21;100549.31;;;2.46;85.25
34073;BME280;20346;52.702;16.886;2023-01-31T06:36:08;100553.89;;;2.45;85.22
34073;BME280;20346;52.702;16.886;2023-01-31T06:38:54;100564.09;;;2.45;85.17
34073;BME280;20346;52.702;16.886;2023-01-31T06:41:40;100555.58;;;2.44;85.02
34073;BME280;20346;52.702;16.886;2023-01-31T06:44:26;100554.20;;;2.43;85.03
34073;BME280;20346;52.702;16.886;2023-01-31T06:47:13;100559.11;;;2.42;85.08
34073;BME280;20346;52.702;16.886;2023-01-31T06:49:59;100564.89;;;2.42;84.96
34073;BME280;20346;52.702;16.886;2023-01-31T06:52:45;100567.27;;;2.42;85.07
34073;BME280;20346;52.702;16.886;2023-01-31T06:55:32;100568.80;;;2.41;84.96
34073;BME280;20346;52.702;16.886;2023-01-31T06:58:18;100566.06;;;2.40;84.87
34073;BME280;20346;52.702;16.886;2023-01-31T07:01:06;100570.83;;;2.41;84.92
34073;BME280;20346;52.702;16.886;2023-01-31T07:03:52;100580.52;;;2.41;84.86
34073;BME280;20346;52.702;16.886;2023-01-31T07:06:38;100583.59;;;2.41;84.83
34073;BME280;20346;52.702;16.886;2023-01-31T07:09:25;100589.16;;;2.39;84.82
34073;BME280;20346;52.702;16.886;2023-01-31T07:12:11;100593.92;;;2.39;84.75
34073;BME280;20346;52.702;16.886;2023-01-31T07:14:57;100595.79;;;2.39;84.75
34073;BME280;20346;52.702;16.886;2023-01-31T07:17:43;100597.02;;;2.40;84.79
34073;BME280;20346;52.702;16.886;2023-01-31T07:20:30;100589.21;;;2.42;84.78
34073;BME280;20346;52.702;16.886;2023-01-31T07:23:16;100591.48;;;2.46;84.82
34073;BME280;20346;52.702;16.886;2023-01-31T07:26:03;100591.48;;;2.44;84.74
34073;BME280;20346;52.702;16.886;2023-01-31T07:28:50;100594.86;;;2.44;84.71
34073;BME280;20346;52.702;16.886;2023-01-31T07:31:37;100601.17;;;2.45;84.80
34073;BME280;20346;52.702;16.886;2023-01-31T07:34:23;100603.83;;;2.51;84.78
34073;BME280;20346;52.702;16.886;2023-01-31T07:37:09;100610.86;;;2.54;84.72
34073;BME280;20346;52.702;16.886;2023-01-31T07:39:55;100610.39;;;2.56;84.76
34073;BME280;20346;52.702;16.886;2023-01-31T07:42:42;100606.84;;;2.58;84.68
34073;BME280;20346;52.702;16.886;2023-01-31T07:45:28;100608.71;;;2.58;84.70
34073;BME280;20346;52.702;16.886;2023-01-31T07:48:14;100611.60;;;2.57;84.67
34073;BME280;20346;52.702;16.886;2023-01-31T07:51:01;100613.14;;;2.58;84.69
34073;BME280;20346;52.702;16.886;2023-01-31T07:53:48;100620.27;;;2.57;84.54
34073;BME280;20346;52.702;16.886;2023-01-31T07:56:34;100621.68;;;2.61;84.67
34073;BME280;20346;52.702;16.886;2023-01-31T07:59:20;100624.66;;;2.67;84.71
34073;BME280;20346;52.702;16.886;2023-01-31T08:02:09;100626.20;;;2.68;84.62
34073;BME280;20346;52.702;16.886;2023-01-31T08:05:15;100623.54;;;2.72;84.64
34073;BME280;20346;52.702;16.886;2023-01-31T08:08:01;100622.05;;;2.74;84.50
34073;BME280;20346;52.702;16.886;2023-01-31T08:10:55;100627.72;;;2.78;84.50
34073;BME280;20346;52.702;16.886;2023-01-31T08:13:41;100625.02;;;2.80;84.54
34073;BME280;20346;52.702;16.886;2023-01-31T08:16:27;100621.70;;;2.85;84.65
34073;BME280;20346;52.702;16.886;2023-01-31T08:19:14;100624.34;;;2.90;84.60
34073;BME280;20346;52.702;16.886;2023-01-31T08:22:01;100629.36;;;2.96;84.56
34073;BME280;20346;52.702;16.886;2023-01-31T08:24:47;100630.98;;;3.01;84.68
34073;BME280;20346;52.702;16.886;2023-01-31T08:27:33;100635.81;;;3.06;84.50
34073;BME280;20346;52.702;16.886;2023-01-31T08:30:23;100635.55;;;3.13;84.61
34073;BME280;20346;52.702;16.886;2023-01-31T08:33:10;100641.77;;;3.19;84.60
34073;BME280;20346;52.702;16.886;2023-01-31T08:35:56;100650.02;;;3.23;84.59
34073;BME280;20346;52.702;16.886;2023-01-31T08:38:43;100647.16;;;3.26;84.61
34073;BME280;20346;52.702;16.886;2023-01-31T08:41:31;100648.15;;;3.24;84.47
34073;BME280;20346;52.702;16.886;2023-01-31T08:44:17;100650.02;;;3.23;84.47
34073;BME280;20346;52.702;16.886;2023-01-31T08:47:04;100652.09;;;3.26;84.43
34073;BME280;20346;52.702;16.886;2023-01-31T08:49:50;100650.23;;;3.27;84.39
34073;BME280;20346;52.702;16.886;2023-01-31T08:52:36;100654.65;;;3.26;84.38
34073;BME280;20346;52.702;16.886;2023-01-31T08:55:22;100654.33;;;3.27;84.52
34073;BME280;20346;52.702;16.886;2023-01-31T08:58:09;100652.66;;;3.30;84.53
34073;BME280;20346;52.702;16.886;2023-01-31T09:00:59;100658.35;;;3.35;84.42
34073;BME280;20346;52.702;16.886;2023-01-31T09:03:45;100662.98;;;3.37;84.35
34073;BME280;20346;52.702;16.886;2023-01-31T09:06:32;100655.86;;;3.40;84.45
34073;BME280;20346;52.702;16.886;2023-01-31T09:09:18;100654.89;;;3.43;84.35
34073;BME280;20346;52.702;16.886;2023-01-31T09:12:04;100654.75;;;3.45;84.32
34073;BME280;20346;52.702;16.886;2023-01-31T09:14:51;100655.46;;;3.47;84.21
34073;BME280;20346;52.702;16.886;2023-01-31T09:17:37;100660.26;;;3.49;84.24
34073;BME280;20346;52.702;16.886;2023-01-31T09:20:23;100666.25;;;3.51;84.24
34073;BME280;20346;52.702;16.886;2023-01-31T09:23:09;100673.27;;;3.53;84.31
34073;BME280;20346;52.702;16.886;2023-01-31T09:25:55;100670.36;;;3.52;84.31
34073;BME280;20346;52.702;16.886;2023-01-31T09:28:42;100671.89;;;3.53;84.22
34073;BME280;20346;52.702;16.886;2023-01-31T09:31:30;100677.54;;;3.54;84.07
34073;BME280;20346;52.702;16.886;2023-01-31T09:34:16;100671.08;;;3.56;84.14
34073;BME280;20346;52.702;16.886;2023-01-31T09:37:02;100670.29;;;3.60;84.12
34073;BME280;20346;52.702;16.886;2023-01-31T09:39:48;100666.23;;;3.63;84.12
34073;BME280;20346;52.702;16.886;2023-01-31T09:42:36;100666.58;;;3.64;84.10
34073;BME280;20346;52.702;16.886;2023-01-31T09:45:28;100670.68;;;3.66;84.10
34073;BME280;20346;52.702;16.886;2023-01-31T09:48:17;100661.65;;;3.66;83.98
34073;BME280;20346;52.702;16.886;2023-01-31T09:51:05;100660.30;;;3.68;84.00
34073;BME280;20346;52.702;16.886;2023-01-31T09:53:51;100658.56;;;3.65;83.78
34073;BME280;20346;52.702;16.886;2023-01-31T09:56:40;100656.69;;;3.62;83.91
34073;BME280;20346;52.702;16.886;2023-01-31T09:59:31;100657.88;;;3.62;83.88
34073;BME280;20346;52.702;16.886;2023-01-31T10:17:45;100662.55;;;3.71;83.81
34073;BME280;20346;52.702;16.886;2023-01-31T10:23:50;100668.84;;;3.83;83.95
34073;BME280;20346;52.702;16.886;2023-01-31T10:26:38;100665.99;;;3.87;83.86
34073;BME280;20346;52.702;16.886;2023-01-31T10:29:36;100654.77;;;3.89;83.90
34073;BME280;20346;52.702;16.886;2023-01-31T10:32:26;100657.55;;;3.93;83.75
34073;BME280;20346;52.702;16.886;2023-01-31T10:35:15;100656.90;;;3.96;83.85
34073;BME280;20346;52.702;16.886;2023-01-31T10:40:58;100651.33;;;4.01;83.80
34073;BME280;20346;52.702;16.886;2023-01-31T10:43:49;100644.39;;;4.06;83.82
34073;BME280;20346;52.702;16.886;2023-01-31T10:46:38;100647.99;;;4.08;83.54
34073;BME280;20346;52.702;16.886;2023-01-31T10:49:25;100638.61;;;4.08;83.57
34073;BME280;20346;52.702;16.886;2023-01-31T10:52:20;100638.11;;;4.09;83.62
34073;BME280;20346;52.702;16.886;2023-01-31T10:57:59;100628.05;;;4.10;83.51
34073;BME280;20346;52.702;16.886;2023-01-31T11:00:45;100625.35;;;4.13;83.53
34073;BME280;20346;52.702;16.886;2023-01-31T11:03:33;100623.15;;;4.16;83.52
34073;BME280;20346;52.702;16.886;2023-01-31T11:06:19;100623.17;;;4.19;83.49
34073;BME280;20346;52.702;16.886;2023-01-31T11:09:07;100619.11;;;4.23;83.39
34073;BME280;20346;52.702;16.886;2023-01-31T11:11:57;100614.04;;;4.27;83.29
34073;BME280;20346;52.702;16.886;2023-01-31T11:14:44;100610.83;;;4.29;83.39
34073;BME280;20346;52.702;16.886;2023-01-31T11:17:30;100614.44;;;4.33;83.43
34073;BME280;20346;52.702;16.886;2023-01-31T11:20:28;100611.06;;;4.38;83.39
34073;BME280;20346;52.702;16.886;2023-01-31T11:23:16;100598.13;;;4.41;83.42
34073;BME280;20346;52.702;16.886;2023-01-31T11:26:06;100591.80;;;4.41;83.41
34073;BME280;20346;52.702;16.886;2023-01-31T11:28:52;100585.99;;;4.39;83.35
34073;BME280;20346;52.702;16.886;2023-01-31T11:31:40;100576.73;;;4.34;83.32
34073;BME280;20346;52.702;16.886;2023-01-31T11:34:28;100572.77;;;4.29;83.20
34073;BME280;20346;52.702;16.886;2023-01-31T11:37:17;100567.30;;;4.29;83.31
34073;BME280;20346;52.702;16.886;2023-01-31T11:40:17;100557.05;;;4.28;83.26
34073;BME280;20346;52.702;16.886;2023-01-31T11:43:29;100550.73;;;4.27;83.30
34073;BME280;20346;52.702;16.886;2023-01-31T11:46:15;100551.27;;;4.28;83.30
34073;BME280;20346;52.702;16.886;2023-01-31T11:49:01;100547.34;;;4.29;83.25
34073;BME280;20346;52.702;16.886;2023-01-31T11:51:58;100550.25;;;4.30;83.30
34073;BME280;20346;52.702;16.886;2023-01-31T11:54:50;100547.20;;;4.32;83.25
34073;BME280;20346;52.702;16.886;2023-01-31T11:57:39;100544.30;;;4.33;83.35
34073;BME280;20346;52.702;16.886;2023-01-31T12:00:26;100542.12;;;4.37;83.26
34073;BME280;20346;52.702;16.886;2023-01-31T12:03:13;100543.85;;;4.40;83.24
34073;BME280;20346;52.702;16.886;2023-01-31T12:06:01;100535.69;;;4.44;83.37
34073;BME280;20346;52.702;16.886;2023-01-31T12:08:48;100535.71;;;4.47;83.22
34073;BME280;20346;52.702;16.886;2023-01-31T12:11:39;100529.27;;;4.52;83.22
34073;BME280;20346;52.702;16.886;2023-01-31T12:14:40;100521.61;;;4.55;83.17
34073;BME280;20346;52.702;16.886;2023-01-31T12:17:27;100519.91;;;4.57;83.17
34073;BME280;20346;52.702;16.886;2023-01-31T12:23:26;100508.15;;;4.60;83.17
34073;BME280;20346;52.702;16.886;2023-01-31T12:35:32;100471.70;;;4.81;83.26
34073;BME280;20346;52.702;16.886;2023-01-31T12:38:25;100467.80;;;4.84;83.13
34073;BME280;20346;52.702;16.886;2023-01-31T12:41:27;100460.80;;;4.87;83.18
34073;BME280;20346;52.702;16.886;2023-01-31T12:50:01;100453.49;;;4.94;83.12
34073;BME280;20346;52.702;16.886;2023-01-31T13:02:10;100443.70;;;4.80;83.29
34073;BME280;20346;52.702;16.886;2023-01-31T13:08:26;100433.41;;;4.65;83.35
34073;BME280;20346;52.702;16.886;2023-01-31T13:11:15;100425.52;;;4.59;83.46
34073;BME280;20346;52.702;16.886;2023-01-31T13:14:04;100425.14;;;4.52;83.47
34073;BME280;20346;52.702;16.886;2023-01-31T13:16:56;100427.67;;;4.46;83.50
34073;BME280;20346;52.702;16.886;2023-01-31T13:19:48;100426.27;;;4.41;83.55
34073;BME280;20346;52.702;16.886;2023-01-31T13:22:42;100420.08;;;4.35;83.53
34073;BME280;20346;52.702;16.886;2023-01-31T13:28:20;100409.98;;;4.28;83.71
34073;BME280;20346;52.702;16.886;2023-01-31T13:31:10;100408.08;;;4.24;83.69
34073;BME280;20346;52.702;16.886;2023-01-31T13:34:01;100400.73;;;4.22;83.78
34073;BME280;20346;52.702;16.886;2023-01-31T13:36:51;100393.89;;;4.21;83.74
34073;BME280;20346;52.702;16.886;2023-01-31T13:39:42;100393.02;;;4.19;83.75
34073;BME280;20346;52.702;16.886;2023-01-31T13:42:30;100391.83;;;4.19;83.81
34073;BME280;20346;52.702;16.886;2023-01-31T13:48:08;100380.41;;;4.14;83.81
34073;BME280;20346;52.702;16.886;2023-01-31T13:51:00;100373.74;;;4.13;83.81
34073;BME280;20346;52.702;16.886;2023-01-31T13:53:48;100365.04;;;4.11;83.86
34073;BME280;20346;52.702;16.886;2023-01-31T13:56:36;100357.02;;;4.10;83.91
34073;BME280;20346;52.702;16.886;2023-01-31T13:59:26;100356.48;;;4.08;83.90
34073;BME280;20346;52.702;16.886;2023-01-31T14:02:16;100357.84;;;4.07;83.91
34073;BME280;20346;52.702;16.886;2023-01-31T14:05:05;100358.52;;;4.06;83.95
34073;BME280;20346;52.702;16.886;2023-01-31T14:08:25;100349.80;;;4.04;83.95
34073;BME280;20346;52.702;16.886;2023-01-31T14:20:25;100333.89;;;3.96;83.92
34073;BME280;20346;52.702;16.886;2023-01-31T14:23:30;100334.92;;;3.96;83.97
34073;BME280;20346;52.702;16.886;2023-01-31T14:29:24;100328.79;;;3.96;83.91
34073;BME280;20346;52.702;16.886;2023-01-31T14:32:15;100330.27;;;3.91;83.87
34073;BME280;20346;52.702;16.886;2023-01-31T14:38:01;100328.20;;;3.84;83.99
34073;BME280;20346;52.702;16.886;2023-01-31T14:41:29;100326.29;;;3.80;83.96
34073;BME280;20346;52.702;16.886;2023-01-31T14:44:09;100322.53;;;3.79;84.02
34073;BME280;20346;52.702;16.886;2023-01-31T14:47:06;100304.25;;;3.73;83.91
34073;BME280;20346;52.702;16.886;2023-01-31T14:55:43;100294.14;;;3.61;83.92
34073;BME280;20346;52.702;16.886;2023-01-31T14:58:32;100288.30;;;3.55;83.89
34073;BME280;20346;52.702;16.886;2023-01-31T15:01:20;100285.69;;;3.49;83.92
34073;BME280;20346;52.702;16.886;2023-01-31T15:04:15;100282.42;;;3.45;83.97
34073;BME280;20346;52.702;16.886;2023-01-31T15:07:04;100276.44;;;3.41;83.94
34073;BME280;20346;52.702;16.886;2023-01-31T15:09:50;100272.14;;;3.37;83.99
34073;BME280;20346;52.702;16.886;2023-01-31T15:13:26;100273.66;;;3.35;84.01
34073;BME280;20346;52.702;16.886;2023-01-31T15:15:52;100267.31;;;3.29;84.02
34073;BME280;20346;52.702;16.886;2023-01-31T15:18:39;100267.98;;;3.27;84.06
34073;BME280;20346;52.702;16.886;2023-01-31T15:21:27;100266.27;;;3.26;84.18
34073;BME280;20346;52.702;16.886;2023-01-31T15:24:18;100256.71;;;3.25;84.18
34073;BME280;20346;52.702;16.886;2023-01-31T15:27:06;100257.05;;;3.24;84.18
34073;BME280;20346;52.702;16.886;2023-01-31T15:35:49;100245.30;;;3.24;84.17
34073;BME280;20346;52.702;16.886;2023-01-31T15:42:00;100235.42;;;3.24;84.19
34073;BME280;20346;52.702;16.886;2023-01-31T15:48:07;100228.42;;;3.22;84.18
34073;BME280;20346;52.702;16.886;2023-01-31T15:50:57;100223.14;;;3.22;84.28
34073;BME280;20346;52.702;16.886;2023-01-31T15:53:44;100221.08;;;3.20;84.26
34073;BME280;20346;52.702;16.886;2023-01-31T15:56:30;100217.50;;;3.20;84.35
34073;BME280;20346;52.702;16.886;2023-01-31T15:59:17;100213.08;;;3.20;84.33
34073;BME280;20346;52.702;16.886;2023-01-31T16:02:03;100206.95;;;3.21;84.36
34073;BME280;20346;52.702;16.886;2023-01-31T16:04:50;100202.70;;;3.22;84.31
34073;BME280;20346;52.702;16.886;2023-01-31T16:07:36;100200.48;;;3.22;84.44
34073;BME280;20346;52.702;16.886;2023-01-31T16:10:23;100191.98;;;3.22;84.39
34073;BME280;20346;52.702;16.886;2023-01-31T16:13:10;100191.46;;;3.22;84.37
34073;BME280;20346;52.702;16.886;2023-01-31T16:15:57;100179.54;;;3.22;84.41
34073;BME280;20346;52.702;16.886;2023-01-31T16:18:44;100172.73;;;3.23;84.40
34073;BME280;20346;52.702;16.886;2023-01-31T16:21:42;100169.50;;;3.23;84.40
34073;BME280;20346;52.702;16.886;2023-01-31T16:24:32;100160.98;;;3.24;84.55
34073;BME280;20346;52.702;16.886;2023-01-31T16:27:18;100154.52;;;3.23;84.44
34073;BME280;20346;52.702;16.886;2023-01-31T16:30:04;100156.73;;;3.24;84.48
34073;BME280;20346;52.702;16.886;2023-01-31T16:32:51;100150.26;;;3.25;84.53
34073;BME280;20346;52.702;16.886;2023-01-31T16:35:37;100141.23;;;3.26;84.58
34073;BME280;20346;52.702;16.886;2023-01-31T16:38:24;100132.73;;;3.26;84.55
34073;BME280;20346;52.702;16.886;2023-01-31T16:41:11;100134.26;;;3.25;84.56